createdAt,value
2023-04-02T03:21:31.606Z,95.50
2023-04-02T03:47:12.281Z,95.90
2023-04-02T09:44:33.866Z,73.40
2023-04-02T09:49:38.672Z,65.00
2023-04-02T09:57:02.713Z,63.60
2023-04-02T10:07:38.489Z,59.60
2023-04-02T10:12:38.831Z,51.10
2023-04-02T10:15:07.373Z,53.20
2023-04-02T10:17:37.210Z,51.80
2023-04-02T10:20:15.609Z,52.00
2023-04-02T10:25:15.124Z,50.10
2023-04-02T10:28:22.974Z,45.40
2023-04-02T10:31:13.180Z,44.10
2023-04-02T10:33:44.176Z,45.60
2023-04-02T10:36:30.300Z,45.20
2023-04-02T10:39:11.974Z,53.70
2023-04-02T10:42:14.177Z,41.30
2023-04-02T10:45:16.531Z,45.10
2023-04-02T10:48:03.464Z,41.80
2023-04-02T10:50:32.700Z,58.90
2023-04-02T10:53:14.497Z,37.30
2023-04-02T10:55:45.868Z,38.60
2023-04-02T10:58:26.307Z,37.10
2023-04-02T11:01:01.623Z,40.50
2023-04-02T11:03:42.523Z,37.20
2023-04-02T11:06:27.646Z,36.40
2023-04-02T11:09:04.173Z,37.60
2023-04-02T11:11:38.738Z,36.50
2023-04-02T11:16:35.735Z,42.70
2023-04-02T11:19:24.506Z,50.60
2023-04-02T11:22:00.254Z,34.60
2023-04-02T11:24:33.038Z,35.90
2023-04-02T11:27:12.283Z,33.10
2023-04-02T11:30:14.220Z,39.50
2023-04-02T11:32:43.550Z,33.50
2023-04-02T11:35:32.332Z,29.90
2023-04-02T11:38:23.171Z,37.30
2023-04-02T11:40:51.697Z,46.40
2023-04-02T11:43:33.876Z,30.00
2023-04-02T11:48:35.981Z,31.50
2023-04-02T11:51:22.391Z,29.70
2023-04-02T11:53:54.522Z,28.70
2023-04-02T11:56:42.366Z,28.60
2023-04-02T11:59:17.987Z,28.60
2023-04-02T12:01:45.438Z,32.00
2023-04-02T12:04:21.294Z,28.70
2023-04-02T12:07:03.046Z,32.10
2023-04-02T12:09:36.854Z,30.20
2023-04-02T12:12:31.425Z,28.70
2023-04-02T12:14:59.435Z,29.30
2023-04-02T12:17:29.401Z,43.30
2023-04-02T12:20:20.474Z,27.30
2023-04-02T12:22:51.835Z,29.00
2023-04-02T12:30:21.669Z,27.30
2023-04-02T12:32:49.371Z,26.80
2023-04-02T12:35:43.670Z,25.80
2023-04-02T12:38:33.452Z,35.50
2023-04-02T12:41:06.644Z,25.70
2023-04-02T12:43:35.743Z,27.30
2023-04-02T12:46:05.316Z,27.80
2023-04-02T12:48:33.378Z,27.70
2023-04-02T12:51:01.241Z,43.60
2023-04-02T12:53:36.197Z,25.80
2023-04-02T12:58:37.263Z,43.10
2023-04-02T13:01:19.940Z,42.10
2023-04-02T13:04:19.367Z,27.00
2023-04-02T13:06:52.173Z,27.80
2023-04-02T13:09:39.406Z,28.40
2023-04-02T13:19:31.715Z,30.40
2023-04-02T13:22:01.459Z,29.50
2023-04-02T13:24:30.981Z,30.30
2023-04-02T13:27:00.986Z,30.30
2023-04-02T13:29:35.984Z,40.50
2023-04-02T13:32:12.503Z,28.30
2023-04-02T13:42:03.892Z,31.90
2023-04-02T13:44:33.779Z,34.10
2023-04-02T13:47:02.036Z,45.10
2023-04-02T13:49:29.866Z,40.80
2023-04-02T13:52:03.820Z,41.50
2023-04-02T13:54:44.687Z,43.90
2023-04-02T16:17:24.856Z,63.80
2023-04-02T16:35:50.592Z,65.30
